sensor_id;sensor_type;location;lat;lon;timestamp;P1;durP1;ratioP1;P2;durP2;ratioP2
36475;SDS011;56615;42.682;23.364;2022-11-03T00:02:16;12.25;;;4.60;;
36475;SDS011;56615;42.682;23.364;2022-11-03T00:04:42;11.50;;;4.63;;
36475;SDS011;56615;42.682;23.364;2022-11-03T00:07:07;11.20;;;4.35;;
36475;SDS011;56615;42.682;23.364;2022-11-03T00:09:33;13.05;;;4.70;;
36475;SDS011;56615;42.682;23.364;2022-11-03T00:11:59;13.43;;;4.57;;
36475;SDS011;56615;42.682;23.364;2022-11-03T00:14:25;12.68;;;4.85;;
36475;SDS011;56615;42.682;23.364;2022-11-03T00:16:53;12.30;;;4.68;;
36475;SDS011;56615;42.682;23.364;2022-11-03T00:19:18;11.60;;;4.65;;
36475;SDS011;56615;42.682;23.364;2022-11-03T00:21:44;13.93;;;4.68;;
36475;SDS011;56615;42.682;23.364;2022-11-03T00:24:10;10.98;;;4.35;;
36475;SDS011;56615;42.682;23.364;2022-11-03T00:26:36;11.73;;;4.45;;
36475;SDS011;56615;42.682;23.364;2022-11-03T00:29:06;12.57;;;4.70;;
36475;SDS011;56615;42.682;23.364;2022-11-03T00:31:33;12.43;;;4.35;;
36475;SDS011;56615;42.682;23.364;2022-11-03T00:34:00;11.65;;;4.38;;
36475;SDS011;56615;42.682;23.364;2022-11-03T00:36:30;11.52;;;4.28;;
36475;SDS011;56615;42.682;23.364;2022-11-03T00:38:57;13.57;;;4.57;;
36475;SDS011;56615;42.682;23.364;2022-11-03T00:41:23;12.55;;;4.68;;
36475;SDS011;56615;42.682;23.364;2022-11-03T00:43:49;12.35;;;4.50;;
36475;SDS011;56615;42.682;23.364;2022-11-03T00:46:15;14.48;;;4.95;;
36475;SDS011;56615;42.682;23.364;2022-11-03T00:48:41;15.63;;;5.03;;
36475;SDS011;56615;42.682;23.364;2022-11-03T00:51:26;11.60;;;4.60;;
36475;SDS011;56615;42.682;23.364;2022-11-03T00:53:57;13.10;;;4.82;;
36475;SDS011;56615;42.682;23.364;2022-11-03T00:56:34;11.10;;;4.47;;
36475;SDS011;56615;42.682;23.364;2022-11-03T00:59:01;13.15;;;5.30;;
36475;SDS011;56615;42.682;23.364;2022-11-03T01:01:38;15.50;;;4.90;;
36475;SDS011;56615;42.682;23.364;2022-11-03T01:04:05;15.88;;;5.05;;
36475;SDS011;56615;42.682;23.364;2022-11-03T01:06:49;12.13;;;4.80;;
36475;SDS011;56615;42.682;23.364;2022-11-03T01:14:31;14.38;;;5.68;;
36475;SDS011;56615;42.682;23.364;2022-11-03T01:16:57;18.02;;;6.05;;
36475;SDS011;56615;42.682;23.364;2022-11-03T01:19:23;13.35;;;6.53;;
36475;SDS011;56615;42.682;23.364;2022-11-03T01:21:49;14.77;;;6.00;;
36475;SDS011;56615;42.682;23.364;2022-11-03T01:24:15;17.40;;;6.93;;
36475;SDS011;56615;42.682;23.364;2022-11-03T01:26:40;20.63;;;7.65;;
36475;SDS011;56615;42.682;23.364;2022-11-03T01:29:06;20.13;;;7.45;;
36475;SDS011;56615;42.682;23.364;2022-11-03T01:31:31;17.00;;;7.55;;
36475;SDS011;56615;42.682;23.364;2022-11-03T01:33:57;17.20;;;7.20;;
36475;SDS011;56615;42.682;23.364;2022-11-03T01:36:22;14.73;;;7.63;;
36475;SDS011;56615;42.682;23.364;2022-11-03T01:38:48;14.23;;;6.68;;
36475;SDS011;56615;42.682;23.364;2022-11-03T01:41:20;17.00;;;7.47;;
36475;SDS011;56615;42.682;23.364;2022-11-03T01:44:21;16.58;;;7.65;;
36475;SDS011;56615;42.682;23.364;2022-11-03T01:51:32;17.73;;;8.02;;
36475;SDS011;56615;42.682;23.364;2022-11-03T01:53:59;21.00;;;8.18;;
36475;SDS011;56615;42.682;23.364;2022-11-03T01:56:28;16.75;;;8.10;;
36475;SDS011;56615;42.682;23.364;2022-11-03T01:58:56;15.68;;;7.93;;
36475;SDS011;56615;42.682;23.364;2022-11-03T02:01:22;18.90;;;8.32;;
36475;SDS011;56615;42.682;23.364;2022-11-03T02:03:52;18.27;;;8.40;;
36475;SDS011;56615;42.682;23.364;2022-11-03T02:06:20;16.88;;;8.52;;
36475;SDS011;56615;42.682;23.364;2022-11-03T02:08:49;15.07;;;8.68;;
36475;SDS011;56615;42.682;23.364;2022-11-03T02:11:16;17.48;;;8.88;;
36475;SDS011;56615;42.682;23.364;2022-11-03T02:13:59;18.85;;;9.20;;
36475;SDS011;56615;42.682;23.364;2022-11-03T02:16:25;16.80;;;9.23;;
36475;SDS011;56615;42.682;23.364;2022-11-03T02:18:53;18.83;;;9.30;;
36475;SDS011;56615;42.682;23.364;2022-11-03T02:23:52;19.23;;;9.63;;
36475;SDS011;56615;42.682;23.364;2022-11-03T02:26:30;18.25;;;9.48;;
36475;SDS011;56615;42.682;23.364;2022-11-03T02:28:56;19.27;;;9.15;;
36475;SDS011;56615;42.682;23.364;2022-11-03T02:31:29;17.95;;;9.07;;
36475;SDS011;56615;42.682;23.364;2022-11-03T02:34:20;18.75;;;9.40;;
36475;SDS011;56615;42.682;23.364;2022-11-03T02:36:49;21.60;;;9.65;;
36475;SDS011;56615;42.682;23.364;2022-11-03T02:40:00;18.38;;;8.95;;
36475;SDS011;56615;42.682;23.364;2022-11-03T02:42:07;19.40;;;9.30;;
36475;SDS011;56615;42.682;23.364;2022-11-03T02:44:33;24.95;;;9.70;;
36475;SDS011;56615;42.682;23.364;2022-11-03T02:47:02;19.13;;;9.60;;
36475;SDS011;56615;42.682;23.364;2022-11-03T02:49:31;20.42;;;10.63;;
36475;SDS011;56615;42.682;23.364;2022-11-03T02:51:59;18.13;;;10.05;;
36475;SDS011;56615;42.682;23.364;2022-11-03T02:54:27;21.75;;;11.10;;
36475;SDS011;56615;42.682;23.364;2022-11-03T02:56:56;19.38;;;9.63;;
36475;SDS011;56615;42.682;23.364;2022-11-03T02:59:26;20.23;;;9.40;;
36475;SDS011;56615;42.682;23.364;2022-11-03T03:01:56;18.52;;;9.07;;
36475;SDS011;56615;42.682;23.364;2022-11-03T03:04:40;19.60;;;9.15;;
36475;SDS011;56615;42.682;23.364;2022-11-03T03:07:09;19.17;;;9.07;;
36475;SDS011;56615;42.682;23.364;2022-11-03T03:09:55;18.67;;;9.05;;
36475;SDS011;56615;42.682;23.364;2022-11-03T03:12:23;17.73;;;9.52;;
36475;SDS011;56615;42.682;23.364;2022-11-03T03:14:49;21.38;;;8.73;;
36475;SDS011;56615;42.682;23.364;2022-11-03T03:17:23;17.48;;;8.35;;
36475;SDS011;56615;42.682;23.364;2022-11-03T03:19:52;16.42;;;8.65;;
36475;SDS011;56615;42.682;23.364;2022-11-03T03:22:24;21.67;;;9.52;;
36475;SDS011;56615;42.682;23.364;2022-11-03T03:25:06;17.25;;;9.02;;
36475;SDS011;56615;42.682;23.364;2022-11-03T03:27:37;22.40;;;8.90;;
36475;SDS011;56615;42.682;23.364;2022-11-03T03:30:05;17.88;;;8.90;;
36475;SDS011;56615;42.682;23.364;2022-11-03T03:32:36;19.88;;;9.13;;
36475;SDS011;56615;42.682;23.364;2022-11-03T03:37:29;17.98;;;9.13;;
36475;SDS011;56615;42.682;23.364;2022-11-03T03:39:56;21.42;;;9.00;;
36475;SDS011;56615;42.682;23.364;2022-11-03T03:42:24;19.00;;;9.20;;
36475;SDS011;56615;42.682;23.364;2022-11-03T03:44:54;19.30;;;9.40;;
36475;SDS011;56615;42.682;23.364;2022-11-03T03:47:26;18.13;;;9.38;;
36475;SDS011;56615;42.682;23.364;2022-11-03T03:49:54;18.40;;;9.30;;
36475;SDS011;56615;42.682;23.364;2022-11-03T03:52:19;17.42;;;9.02;;
36475;SDS011;56615;42.682;23.364;2022-11-03T03:54:45;20.65;;;8.75;;
36475;SDS011;56615;42.682;23.364;2022-11-03T03:57:14;20.90;;;9.93;;
36475;SDS011;56615;42.682;23.364;2022-11-03T03:59:42;20.93;;;10.17;;
36475;SDS011;56615;42.682;23.364;2022-11-03T04:02:07;19.15;;;9.65;;
36475;SDS011;56615;42.682;23.364;2022-11-03T04:04:39;18.40;;;9.65;;
36475;SDS011;56615;42.682;23.364;2022-11-03T04:07:07;20.48;;;9.50;;
36475;SDS011;56615;42.682;23.364;2022-11-03T04:09:51;19.10;;;9.10;;
36475;SDS011;56615;42.682;23.364;2022-11-03T04:12:16;19.67;;;9.65;;
36475;SDS011;56615;42.682;23.364;2022-11-03T04:15:00;19.25;;;9.88;;
36475;SDS011;56615;42.682;23.364;2022-11-03T04:17:45;21.55;;;10.25;;
36475;SDS011;56615;42.682;23.364;2022-11-03T04:20:29;19.70;;;10.07;;
36475;SDS011;56615;42.682;23.364;2022-11-03T04:23:14;18.85;;;10.00;;
36475;SDS011;56615;42.682;23.364;2022-11-03T04:25:39;20.25;;;10.27;;
36475;SDS011;56615;42.682;23.364;2022-11-03T04:28:16;19.80;;;10.63;;
36475;SDS011;56615;42.682;23.364;2022-11-03T04:30:41;17.65;;;10.32;;
36475;SDS011;56615;42.682;23.364;2022-11-03T04:33:14;26.13;;;11.13;;
36475;SDS011;56615;42.682;23.364;2022-11-03T04:35:41;27.10;;;11.25;;
36475;SDS011;56615;42.682;23.364;2022-11-03T04:45:37;24.23;;;11.82;;
36475;SDS011;56615;42.682;23.364;2022-11-03T04:48:10;23.60;;;11.40;;
36475;SDS011;56615;42.682;23.364;2022-11-03T04:50:37;24.08;;;11.00;;
36475;SDS011;56615;42.682;23.364;2022-11-03T04:53:04;22.27;;;11.75;;
36475;SDS011;56615;42.682;23.364;2022-11-03T04:55:35;20.25;;;11.00;;
36475;SDS011;56615;42.682;23.364;2022-11-03T04:58:01;24.00;;;11.70;;
36475;SDS011;56615;42.682;23.364;2022-11-03T05:00:31;23.70;;;11.70;;
36475;SDS011;56615;42.682;23.364;2022-11-03T05:02:56;24.38;;;12.45;;
36475;SDS011;56615;42.682;23.364;2022-11-03T05:05:23;28.73;;;12.32;;
36475;SDS011;56615;42.682;23.364;2022-11-03T05:07:50;33.20;;;17.08;;
36475;SDS011;56615;42.682;23.364;2022-11-03T05:10:18;23.88;;;12.30;;
36475;SDS011;56615;42.682;23.364;2022-11-03T05:12:45;22.85;;;11.77;;
36475;SDS011;56615;42.682;23.364;2022-11-03T05:17:58;26.92;;;13.07;;
36475;SDS011;56615;42.682;23.364;2022-11-03T05:20:39;28.42;;;13.23;;
36475;SDS011;56615;42.682;23.364;2022-11-03T05:23:26;29.25;;;14.38;;
36475;SDS011;56615;42.682;23.364;2022-11-03T05:25:55;27.45;;;13.82;;
36475;SDS011;56615;42.682;23.364;2022-11-03T05:31:08;29.40;;;13.93;;
36475;SDS011;56615;42.682;23.364;2022-11-03T05:33:40;30.42;;;13.60;;
36475;SDS011;56615;42.682;23.364;2022-11-03T05:36:11;32.75;;;13.57;;
36475;SDS011;56615;42.682;23.364;2022-11-03T05:38:38;31.75;;;13.82;;
36475;SDS011;56615;42.682;23.364;2022-11-03T05:41:04;26.40;;;13.60;;
36475;SDS011;56615;42.682;23.364;2022-11-03T05:43:37;28.83;;;13.10;;
36475;SDS011;56615;42.682;23.364;2022-11-03T05:46:03;31.75;;;13.70;;
36475;SDS011;56615;42.682;23.364;2022-11-03T05:48:36;29.00;;;13.25;;
36475;SDS011;56615;42.682;23.364;2022-11-03T05:51:13;28.98;;;14.05;;
36475;SDS011;56615;42.682;23.364;2022-11-03T05:53:44;27.90;;;14.07;;
36475;SDS011;56615;42.682;23.364;2022-11-03T05:56:14;29.88;;;14.70;;
36475;SDS011;56615;42.682;23.364;2022-11-03T05:58:41;29.98;;;13.98;;
36475;SDS011;56615;42.682;23.364;2022-11-03T06:01:12;29.80;;;14.15;;
36475;SDS011;56615;42.682;23.364;2022-11-03T06:03:44;36.35;;;14.18;;
36475;SDS011;56615;42.682;23.364;2022-11-03T06:11:20;29.05;;;14.30;;
36475;SDS011;56615;42.682;23.364;2022-11-03T06:13:53;29.30;;;14.38;;
36475;SDS011;56615;42.682;23.364;2022-11-03T06:18:45;24.88;;;13.95;;
36475;SDS011;56615;42.682;23.364;2022-11-03T06:21:12;27.23;;;13.57;;
36475;SDS011;56615;42.682;23.364;2022-11-03T06:23:40;31.42;;;14.60;;
36475;SDS011;56615;42.682;23.364;2022-11-03T06:26:11;30.90;;;14.18;;
36475;SDS011;56615;42.682;23.364;2022-11-03T06:28:40;33.70;;;14.52;;
36475;SDS011;56615;42.682;23.364;2022-11-03T06:31:11;39.90;;;15.05;;
36475;SDS011;56615;42.682;23.364;2022-11-03T06:33:38;33.85;;;15.98;;
36475;SDS011;56615;42.682;23.364;2022-11-03T06:36:10;35.15;;;15.82;;
36475;SDS011;56615;42.682;23.364;2022-11-03T06:38:40;36.38;;;17.15;;
36475;SDS011;56615;42.682;23.364;2022-11-03T06:41:08;42.08;;;18.65;;
36475;SDS011;56615;42.682;23.364;2022-11-03T06:43:45;32.85;;;17.63;;
36475;SDS011;56615;42.682;23.364;2022-11-03T06:46:31;40.67;;;18.42;;
36475;SDS011;56615;42.682;23.364;2022-11-03T06:48:59;33.13;;;17.45;;
36475;SDS011;56615;42.682;23.364;2022-11-03T06:51:26;37.95;;;17.13;;
36475;SDS011;56615;42.682;23.364;2022-11-03T06:53:53;39.13;;;18.20;;
36475;SDS011;56615;42.682;23.364;2022-11-03T06:56:20;32.72;;;17.42;;
36475;SDS011;56615;42.682;23.364;2022-11-03T06:58:47;35.17;;;16.67;;
36475;SDS011;56615;42.682;23.364;2022-11-03T07:01:23;37.53;;;17.77;;
36475;SDS011;56615;42.682;23.364;2022-11-03T07:03:51;39.50;;;17.80;;
36475;SDS011;56615;42.682;23.364;2022-11-03T07:06:21;38.33;;;17.95;;
36475;SDS011;56615;42.682;23.364;2022-11-03T07:08:55;29.90;;;16.58;;
36475;SDS011;56615;42.682;23.364;2022-11-03T07:11:21;33.95;;;16.77;;
36475;SDS011;56615;42.682;23.364;2022-11-03T07:13:50;34.05;;;16.88;;
36475;SDS011;56615;42.682;23.364;2022-11-03T07:16:27;31.08;;;15.85;;
36475;SDS011;56615;42.682;23.364;2022-11-03T07:18:53;30.02;;;16.58;;
36475;SDS011;56615;42.682;23.364;2022-11-03T07:24:14;30.75;;;15.35;;
36475;SDS011;56615;42.682;23.364;2022-11-03T07:26:42;29.80;;;16.35;;
36475;SDS011;56615;42.682;23.364;2022-11-03T07:29:18;30.55;;;15.40;;
36475;SDS011;56615;42.682;23.364;2022-11-03T07:31:45;31.25;;;16.23;;
36475;SDS011;56615;42.682;23.364;2022-11-03T07:34:12;30.05;;;16.63;;
36475;SDS011;56615;42.682;23.364;2022-11-03T07:36:39;31.25;;;18.40;;
36475;SDS011;56615;42.682;23.364;2022-11-03T07:39:07;31.10;;;18.08;;
36475;SDS011;56615;42.682;23.364;2022-11-03T07:41:36;36.33;;;17.83;;
36475;SDS011;56615;42.682;23.364;2022-11-03T07:46:36;37.45;;;18.92;;
36475;SDS011;56615;42.682;23.364;2022-11-03T07:49:02;36.03;;;18.92;;
36475;SDS011;56615;42.682;23.364;2022-11-03T07:51:36;33.45;;;17.92;;
36475;SDS011;56615;42.682;23.364;2022-11-03T07:56:42;32.83;;;20.00;;
36475;SDS011;56615;42.682;23.364;2022-11-03T07:59:14;33.72;;;20.77;;
36475;SDS011;56615;42.682;23.364;2022-11-03T08:04:29;34.78;;;18.92;;
36475;SDS011;56615;42.682;23.364;2022-11-03T08:06:55;32.22;;;17.80;;
36475;SDS011;56615;42.682;23.364;2022-11-03T08:09:21;35.72;;;18.17;;
36475;SDS011;56615;42.682;23.364;2022-11-03T08:11:52;32.83;;;17.25;;
36475;SDS011;56615;42.682;23.364;2022-11-03T08:14:18;31.70;;;18.08;;
36475;SDS011;56615;42.682;23.364;2022-11-03T08:16:46;31.77;;;17.30;;
36475;SDS011;56615;42.682;23.364;2022-11-03T08:19:11;27.90;;;17.65;;
36475;SDS011;56615;42.682;23.364;2022-11-03T08:21:37;28.60;;;17.55;;
36475;SDS011;56615;42.682;23.364;2022-11-03T08:24:03;33.20;;;17.15;;
36475;SDS011;56615;42.682;23.364;2022-11-03T08:26:29;28.75;;;16.60;;
36475;SDS011;56615;42.682;23.364;2022-11-03T08:28:54;32.35;;;16.60;;
36475;SDS011;56615;42.682;23.364;2022-11-03T08:31:20;30.73;;;17.30;;
36475;SDS011;56615;42.682;23.364;2022-11-03T08:33:45;28.58;;;15.70;;
36475;SDS011;56615;42.682;23.364;2022-11-03T08:36:10;23.95;;;15.10;;
36475;SDS011;56615;42.682;23.364;2022-11-03T08:38:36;25.10;;;13.80;;
36475;SDS011;56615;42.682;23.364;2022-11-03T08:41:02;27.05;;;14.95;;
36475;SDS011;56615;42.682;23.364;2022-11-03T08:43:28;29.63;;;15.82;;
36475;SDS011;56615;42.682;23.364;2022-11-03T08:45:53;31.75;;;16.20;;
36475;SDS011;56615;42.682;23.364;2022-11-03T08:48:19;26.88;;;15.02;;
36475;SDS011;56615;42.682;23.364;2022-11-03T08:50:46;24.63;;;14.63;;
36475;SDS011;56615;42.682;23.364;2022-11-03T08:53:12;33.67;;;16.35;;
36475;SDS011;56615;42.682;23.364;2022-11-03T08:55:37;28.50;;;15.43;;
36475;SDS011;56615;42.682;23.364;2022-11-03T08:58:03;25.27;;;14.85;;
36475;SDS011;56615;42.682;23.364;2022-11-03T09:00:28;30.33;;;14.82;;
36475;SDS011;56615;42.682;23.364;2022-11-03T09:02:53;29.85;;;16.05;;
36475;SDS011;56615;42.682;23.364;2022-11-03T09:05:19;29.40;;;16.17;;
36475;SDS011;56615;42.682;23.364;2022-11-03T09:07:44;29.85;;;15.50;;
36475;SDS011;56615;42.682;23.364;2022-11-03T09:10:09;28.77;;;15.48;;
36475;SDS011;56615;42.682;23.364;2022-11-03T09:12:36;31.92;;;16.77;;
36475;SDS011;56615;42.682;23.364;2022-11-03T09:15:02;30.35;;;15.52;;
36475;SDS011;56615;42.682;23.364;2022-11-03T09:17:28;28.73;;;15.35;;
36475;SDS011;56615;42.682;23.364;2022-11-03T09:19:54;29.60;;;15.65;;
36475;SDS011;56615;42.682;23.364;2022-11-03T09:22:19;28.30;;;14.57;;
36475;SDS011;56615;42.682;23.364;2022-11-03T09:24:46;28.23;;;14.75;;
36475;SDS011;56615;42.682;23.364;2022-11-03T09:27:11;27.27;;;14.18;;
36475;SDS011;56615;42.682;23.364;2022-11-03T09:29:36;33.67;;;15.68;;
36475;SDS011;56615;42.682;23.364;2022-11-03T09:32:02;37.03;;;16.65;;
36475;SDS011;56615;42.682;23.364;2022-11-03T09:34:27;35.25;;;15.70;;
36475;SDS011;56615;42.682;23.364;2022-11-03T09:36:54;29.80;;;15.52;;
36475;SDS011;56615;42.682;23.364;2022-11-03T09:39:19;25.35;;;12.38;;
36475;SDS011;56615;42.682;23.364;2022-11-03T09:41:44;27.23;;;12.70;;
36475;SDS011;56615;42.682;23.364;2022-11-03T09:44:10;25.27;;;12.95;;
36475;SDS011;56615;42.682;23.364;2022-11-03T09:46:35;27.08;;;12.52;;
36475;SDS011;56615;42.682;23.364;2022-11-03T09:49:01;28.33;;;13.18;;
36475;SDS011;56615;42.682;23.364;2022-11-03T09:51:28;28.00;;;12.90;;
36475;SDS011;56615;42.682;23.364;2022-11-03T09:53:55;27.08;;;13.57;;
36475;SDS011;56615;42.682;23.364;2022-11-03T09:56:23;26.33;;;13.65;;
36475;SDS011;56615;42.682;23.364;2022-11-03T09:58:49;29.25;;;13.27;;
36475;SDS011;56615;42.682;23.364;2022-11-03T10:01:14;28.15;;;13.18;;
36475;SDS011;56615;42.682;23.364;2022-11-03T10:03:40;26.58;;;12.35;;
36475;SDS011;56615;42.682;23.364;2022-11-03T10:06:14;25.50;;;11.80;;
36475;SDS011;56615;42.682;23.364;2022-11-03T10:08:43;24.70;;;12.23;;
36475;SDS011;56615;42.682;23.364;2022-11-03T10:11:10;27.65;;;12.15;;
36475;SDS011;56615;42.682;23.364;2022-11-03T10:13:39;22.85;;;12.25;;
36475;SDS011;56615;42.682;23.364;2022-11-03T10:16:19;26.00;;;12.02;;
36475;SDS011;56615;42.682;23.364;2022-11-03T10:18:46;22.58;;;11.38;;
36475;SDS011;56615;42.682;23.364;2022-11-03T10:23:40;25.60;;;12.38;;
36475;SDS011;56615;42.682;23.364;2022-11-03T10:26:09;23.35;;;11.68;;
36475;SDS011;56615;42.682;23.364;2022-11-03T10:28:36;22.67;;;11.20;;
36475;SDS011;56615;42.682;23.364;2022-11-03T10:31:05;21.17;;;10.68;;
36475;SDS011;56615;42.682;23.364;2022-11-03T10:36:03;19.40;;;10.45;;
36475;SDS011;56615;42.682;23.364;2022-11-03T10:38:44;21.65;;;10.38;;
36475;SDS011;56615;42.682;23.364;2022-11-03T10:41:14;21.20;;;9.60;;
36475;SDS011;56615;42.682;23.364;2022-11-03T10:43:43;20.85;;;10.18;;
36475;SDS011;56615;42.682;23.364;2022-11-03T10:49:31;20.10;;;8.50;;
36475;SDS011;56615;42.682;23.364;2022-11-03T10:52:08;23.27;;;9.43;;
36475;SDS011;56615;42.682;23.364;2022-11-03T10:54:40;20.10;;;9.60;;
36475;SDS011;56615;42.682;23.364;2022-11-03T10:57:06;17.58;;;8.45;;
36475;SDS011;56615;42.682;23.364;2022-11-03T10:59:33;19.60;;;8.38;;
36475;SDS011;56615;42.682;23.364;2022-11-03T11:02:01;18.30;;;8.63;;
36475;SDS011;56615;42.682;23.364;2022-11-03T11:04:27;22.33;;;8.98;;
36475;SDS011;56615;42.682;23.364;2022-11-03T11:06:52;21.85;;;8.98;;
36475;SDS011;56615;42.682;23.364;2022-11-03T11:09:20;21.77;;;7.93;;
36475;SDS011;56615;42.682;23.364;2022-11-03T11:12:06;19.83;;;7.22;;
36475;SDS011;56615;42.682;23.364;2022-11-03T11:15:01;16.58;;;6.95;;
36475;SDS011;56615;42.682;23.364;2022-11-03T11:20:17;20.42;;;6.50;;
36475;SDS011;56615;42.682;23.364;2022-11-03T11:22:50;14.95;;;6.15;;
36475;SDS011;56615;42.682;23.364;2022-11-03T11:25:18;20.13;;;6.38;;
36475;SDS011;56615;42.682;23.364;2022-11-03T11:35:17;14.95;;;6.55;;
36475;SDS011;56615;42.682;23.364;2022-11-03T11:41:05;18.55;;;7.22;;
36475;SDS011;56615;42.682;23.364;2022-11-03T11:43:31;22.38;;;7.45;;
36475;SDS011;56615;42.682;23.364;2022-11-03T11:51:21;15.82;;;6.07;;
36475;SDS011;56615;42.682;23.364;2022-11-03T11:53:47;15.68;;;6.15;;
36475;SDS011;56615;42.682;23.364;2022-11-03T11:56:14;18.63;;;6.35;;
36475;SDS011;56615;42.682;23.364;2022-11-03T12:04:12;16.50;;;6.85;;
36475;SDS011;56615;42.682;23.364;2022-11-03T12:06:42;14.40;;;6.57;;
36475;SDS011;56615;42.682;23.364;2022-11-03T12:09:14;19.63;;;6.47;;
36475;SDS011;56615;42.682;23.364;2022-11-03T12:11:43;17.33;;;6.15;;
36475;SDS011;56615;42.682;23.364;2022-11-03T12:14:55;16.40;;;5.75;;
36475;SDS011;56615;42.682;23.364;2022-11-03T12:16:58;16.75;;;5.00;;
36475;SDS011;56615;42.682;23.364;2022-11-03T12:24:58;16.67;;;6.22;;
36475;SDS011;56615;42.682;23.364;2022-11-03T12:29:55;16.10;;;5.40;;
36475;SDS011;56615;42.682;23.364;2022-11-03T12:32:29;13.88;;;4.45;;
36475;SDS011;56615;42.682;23.364;2022-11-03T12:34:58;15.38;;;4.22;;
36475;SDS011;56615;42.682;23.364;2022-11-03T12:37:24;14.18;;;4.03;;
36475;SDS011;56615;42.682;23.364;2022-11-03T12:39:49;12.98;;;4.80;;
36475;SDS011;56615;42.682;23.364;2022-11-03T12:42:14;13.02;;;4.45;;
36475;SDS011;56615;42.682;23.364;2022-11-03T12:44:40;15.95;;;5.03;;
36475;SDS011;56615;42.682;23.364;2022-11-03T12:47:05;16.75;;;5.50;;
36475;SDS011;56615;42.682;23.364;2022-11-03T12:49:31;18.10;;;5.25;;
36475;SDS011;56615;42.682;23.364;2022-11-03T12:51:56;21.50;;;5.40;;
36475;SDS011;56615;42.682;23.364;2022-11-03T12:54:29;20.35;;;5.65;;
36475;SDS011;56615;42.682;23.364;2022-11-03T12:56:55;20.27;;;5.82;;
36475;SDS011;56615;42.682;23.364;2022-11-03T12:59:25;19.95;;;5.68;;
36475;SDS011;56615;42.682;23.364;2022-11-03T13:01:51;19.75;;;5.68;;
36475;SDS011;56615;42.682;23.364;2022-11-03T13:04:16;16.15;;;5.95;;
36475;SDS011;56615;42.682;23.364;2022-11-03T13:06:42;14.13;;;5.50;;
36475;SDS011;56615;42.682;23.364;2022-11-03T13:09:07;19.80;;;5.80;;
36475;SDS011;56615;42.682;23.364;2022-11-03T13:11:34;20.60;;;6.13;;
36475;SDS011;56615;42.682;23.364;2022-11-03T13:14:32;20.67;;;5.90;;
36475;SDS011;56615;42.682;23.364;2022-11-03T13:16:57;16.30;;;5.80;;
36475;SDS011;56615;42.682;23.364;2022-11-03T13:19:22;15.57;;;5.45;;
36475;SDS011;56615;42.682;23.364;2022-11-03T13:21:48;16.42;;;5.57;;
36475;SDS011;56615;42.682;23.364;2022-11-03T13:24:13;20.45;;;5.38;;
36475;SDS011;56615;42.682;23.364;2022-11-03T13:26:42;19.65;;;5.80;;
36475;SDS011;56615;42.682;23.364;2022-11-03T13:29:07;15.02;;;5.07;;
36475;SDS011;56615;42.682;23.364;2022-11-03T13:31:32;18.95;;;5.25;;
36475;SDS011;56615;42.682;23.364;2022-11-03T13:33:59;16.55;;;5.85;;
36475;SDS011;56615;42.682;23.364;2022-11-03T13:36:25;15.07;;;5.57;;
36475;SDS011;56615;42.682;23.364;2022-11-03T13:38:50;15.88;;;5.50;;
36475;SDS011;56615;42.682;23.364;2022-11-03T13:41:16;15.02;;;4.93;;
36475;SDS011;56615;42.682;23.364;2022-11-03T13:43:41;17.50;;;5.80;;
36475;SDS011;56615;42.682;23.364;2022-11-03T13:46:06;15.15;;;6.25;;
36475;SDS011;56615;42.682;23.364;2022-11-03T13:48:32;19.13;;;6.13;;
36475;SDS011;56615;42.682;23.364;2022-11-03T13:50:58;18.48;;;5.78;;
36475;SDS011;56615;42.682;23.364;2022-11-03T13:53:24;17.20;;;6.30;;
36475;SDS011;56615;42.682;23.364;2022-11-03T13:55:50;20.27;;;6.07;;
36475;SDS011;56615;42.682;23.364;2022-11-03T13:58:15;19.17;;;6.00;;
36475;SDS011;56615;42.682;23.364;2022-11-03T14:00:41;18.27;;;5.85;;
36475;SDS011;56615;42.682;23.364;2022-11-03T14:03:06;13.75;;;5.57;;
36475;SDS011;56615;42.682;23.364;2022-11-03T14:05:33;16.60;;;5.32;;
36475;SDS011;56615;42.682;23.364;2022-11-03T14:07:58;15.63;;;5.38;;
36475;SDS011;56615;42.682;23.364;2022-11-03T14:10:23;16.85;;;5.50;;
36475;SDS011;56615;42.682;23.364;2022-11-03T14:12:49;15.40;;;5.03;;
36475;SDS011;56615;42.682;23.364;2022-11-03T14:15:15;13.27;;;4.53;;
36475;SDS011;56615;42.682;23.364;2022-11-03T14:17:40;16.38;;;4.95;;
36475;SDS011;56615;42.682;23.364;2022-11-03T14:20:08;13.18;;;4.97;;
36475;SDS011;56615;42.682;23.364;2022-11-03T14:22:35;16.42;;;5.10;;
36475;SDS011;56615;42.682;23.364;2022-11-03T14:25:00;18.98;;;5.00;;
36475;SDS011;56615;42.682;23.364;2022-11-03T14:27:26;14.55;;;4.60;;
36475;SDS011;56615;42.682;23.364;2022-11-03T14:29:52;21.17;;;5.00;;
36475;SDS011;56615;42.682;23.364;2022-11-03T14:32:17;16.65;;;6.25;;
36475;SDS011;56615;42.682;23.364;2022-11-03T14:34:43;16.88;;;5.57;;
36475;SDS011;56615;42.682;23.364;2022-11-03T14:37:09;15.32;;;5.00;;
36475;SDS011;56615;42.682;23.364;2022-11-03T14:39:35;16.13;;;5.40;;
36475;SDS011;56615;42.682;23.364;2022-11-03T14:42:01;17.08;;;4.85;;
36475;SDS011;56615;42.682;23.364;2022-11-03T14:46:59;17.67;;;6.07;;
36475;SDS011;56615;42.682;23.364;2022-11-03T14:49:25;21.45;;;6.00;;
36475;SDS011;56615;42.682;23.364;2022-11-03T14:51:51;21.77;;;5.70;;
36475;SDS011;56615;42.682;23.364;2022-11-03T14:54:18;17.80;;;6.55;;
36475;SDS011;56615;42.682;23.364;2022-11-03T14:56:43;16.35;;;5.15;;
36475;SDS011;56615;42.682;23.364;2022-11-03T14:59:21;19.20;;;6.63;;
36475;SDS011;56615;42.682;23.364;2022-11-03T15:01:53;17.55;;;5.45;;
36475;SDS011;56615;42.682;23.364;2022-11-03T15:04:19;19.27;;;7.05;;
36475;SDS011;56615;42.682;23.364;2022-11-03T15:06:45;18.33;;;6.80;;
36475;SDS011;56615;42.682;23.364;2022-11-03T15:09:19;25.73;;;9.35;;
36475;SDS011;56615;42.682;23.364;2022-11-03T15:15:32;25.67;;;7.78;;
36475;SDS011;56615;42.682;23.364;2022-11-03T15:17:59;20.77;;;6.95;;
36475;SDS011;56615;42.682;23.364;2022-11-03T15:20:28;24.27;;;7.50;;
36475;SDS011;56615;42.682;23.364;2022-11-03T15:22:55;23.85;;;8.05;;
36475;SDS011;56615;42.682;23.364;2022-11-03T15:25:20;23.10;;;7.38;;
36475;SDS011;56615;42.682;23.364;2022-11-03T15:28:01;24.27;;;8.25;;
36475;SDS011;56615;42.682;23.364;2022-11-03T15:30:45;28.55;;;8.70;;
36475;SDS011;56615;42.682;23.364;2022-11-03T15:33:11;25.25;;;9.05;;
36475;SDS011;56615;42.682;23.364;2022-11-03T15:35:36;24.88;;;8.50;;
36475;SDS011;56615;42.682;23.364;2022-11-03T15:38:02;35.70;;;10.00;;
36475;SDS011;56615;42.682;23.364;2022-11-03T15:40:27;27.83;;;9.15;;
36475;SDS011;56615;42.682;23.364;2022-11-03T15:42:53;26.17;;;9.63;;
36475;SDS011;56615;42.682;23.364;2022-11-03T15:45:18;28.45;;;10.00;;
36475;SDS011;56615;42.682;23.364;2022-11-03T15:47:43;26.83;;;8.77;;
36475;SDS011;56615;42.682;23.364;2022-11-03T15:50:09;34.85;;;9.68;;
36475;SDS011;56615;42.682;23.364;2022-11-03T15:52:35;29.70;;;9.20;;
36475;SDS011;56615;42.682;23.364;2022-11-03T15:55:02;25.75;;;9.48;;
36475;SDS011;56615;42.682;23.364;2022-11-03T15:57:28;25.27;;;9.25;;
36475;SDS011;56615;42.682;23.364;2022-11-03T15:59:55;27.42;;;10.73;;